sensor_id;sensor_type;location;lat;lon;timestamp;P1;durP1;ratioP1;P2;durP2;ratioP2
2622;SDS011;1321;48.690;9.022;2023-06-10T00:00:43;14.07;;;13.47;;
2622;SDS011;1321;48.690;9.022;2023-06-10T00:03:11;14.13;;;13.40;;
2622;SDS011;1321;48.690;9.022;2023-06-10T00:05:41;14.67;;;13.93;;
2622;SDS011;1321;48.690;9.022;2023-06-10T00:08:10;14.37;;;13.67;;
2622;SDS011;1321;48.690;9.022;2023-06-10T00:10:38;14.07;;;13.37;;
2622;SDS011;1321;48.690;9.022;2023-06-10T00:13:06;14.27;;;13.47;;
2622;SDS011;1321;48.690;9.022;2023-06-10T00:15:35;14.40;;;13.80;;
2622;SDS011;1321;48.690;9.022;2023-06-10T00:18:03;14.70;;;13.90;;
2622;SDS011;1321;48.690;9.022;2023-06-10T00:20:32;13.97;;;13.37;;
2622;SDS011;1321;48.690;9.022;2023-06-10T00:23:02;14.63;;;13.50;;
2622;SDS011;1321;48.690;9.022;2023-06-10T00:25:34;13.90;;;13.27;;
2622;SDS011;1321;48.690;9.022;2023-06-10T00:28:02;14.70;;;13.90;;
2622;SDS011;1321;48.690;9.022;2023-06-10T00:30:31;15.13;;;14.33;;
2622;SDS011;1321;48.690;9.022;2023-06-10T00:32:59;14.20;;;13.40;;
2622;SDS011;1321;48.690;9.022;2023-06-10T00:35:27;15.00;;;14.13;;
2622;SDS011;1321;48.690;9.022;2023-06-10T00:37:55;14.00;;;13.40;;
2622;SDS011;1321;48.690;9.022;2023-06-10T00:40:24;14.30;;;13.53;;
2622;SDS011;1321;48.690;9.022;2023-06-10T00:42:53;14.60;;;14.00;;
2622;SDS011;1321;48.690;9.022;2023-06-10T00:45:22;14.50;;;13.87;;
2622;SDS011;1321;48.690;9.022;2023-06-10T00:47:50;13.53;;;13.03;;
2622;SDS011;1321;48.690;9.022;2023-06-10T00:50:19;13.60;;;13.00;;
2622;SDS011;1321;48.690;9.022;2023-06-10T00:52:47;14.80;;;14.03;;
2622;SDS011;1321;48.690;9.022;2023-06-10T00:55:20;14.37;;;13.73;;
2622;SDS011;1321;48.690;9.022;2023-06-10T00:57:49;14.00;;;13.40;;
2622;SDS011;1321;48.690;9.022;2023-06-10T01:00:20;14.00;;;13.40;;
2622;SDS011;1321;48.690;9.022;2023-06-10T01:02:48;13.90;;;13.30;;
2622;SDS011;1321;48.690;9.022;2023-06-10T01:05:19;14.47;;;13.77;;
2622;SDS011;1321;48.690;9.022;2023-06-10T01:07:49;14.67;;;14.07;;
2622;SDS011;1321;48.690;9.022;2023-06-10T01:10:23;14.63;;;13.93;;
2622;SDS011;1321;48.690;9.022;2023-06-10T01:12:58;14.30;;;13.80;;
2622;SDS011;1321;48.690;9.022;2023-06-10T01:15:30;13.90;;;13.40;;
2622;SDS011;1321;48.690;9.022;2023-06-10T01:17:59;13.47;;;12.97;;
2622;SDS011;1321;48.690;9.022;2023-06-10T01:20:29;14.50;;;13.90;;
2622;SDS011;1321;48.690;9.022;2023-06-10T01:23:00;15.00;;;14.30;;
2622;SDS011;1321;48.690;9.022;2023-06-10T01:25:30;15.43;;;14.53;;
2622;SDS011;1321;48.690;9.022;2023-06-10T01:28:03;14.80;;;14.10;;
2622;SDS011;1321;48.690;9.022;2023-06-10T01:30:39;14.83;;;14.07;;
2622;SDS011;1321;48.690;9.022;2023-06-10T01:33:12;15.30;;;14.60;;
2622;SDS011;1321;48.690;9.022;2023-06-10T01:35:44;14.80;;;14.00;;
2622;SDS011;1321;48.690;9.022;2023-06-10T01:38:15;14.60;;;13.90;;
2622;SDS011;1321;48.690;9.022;2023-06-10T01:40:46;15.70;;;14.83;;
2622;SDS011;1321;48.690;9.022;2023-06-10T01:43:16;13.80;;;13.10;;
2622;SDS011;1321;48.690;9.022;2023-06-10T01:45:45;14.87;;;14.17;;
2622;SDS011;1321;48.690;9.022;2023-06-10T01:48:13;15.17;;;14.47;;
2622;SDS011;1321;48.690;9.022;2023-06-10T01:50:41;14.80;;;14.20;;
2622;SDS011;1321;48.690;9.022;2023-06-10T01:53:10;15.50;;;14.70;;
2622;SDS011;1321;48.690;9.022;2023-06-10T01:55:40;15.40;;;14.70;;
2622;SDS011;1321;48.690;9.022;2023-06-10T01:58:08;16.23;;;15.33;;
2622;SDS011;1321;48.690;9.022;2023-06-10T02:00:36;15.20;;;14.53;;
2622;SDS011;1321;48.690;9.022;2023-06-10T02:03:05;16.00;;;15.10;;
2622;SDS011;1321;48.690;9.022;2023-06-10T02:05:33;16.33;;;15.53;;
2622;SDS011;1321;48.690;9.022;2023-06-10T02:08:01;16.30;;;15.50;;
2622;SDS011;1321;48.690;9.022;2023-06-10T02:10:29;16.40;;;15.60;;
2622;SDS011;1321;48.690;9.022;2023-06-10T02:12:59;16.67;;;15.87;;
2622;SDS011;1321;48.690;9.022;2023-06-10T02:15:27;17.37;;;16.47;;
2622;SDS011;1321;48.690;9.022;2023-06-10T02:17:55;16.83;;;15.93;;
2622;SDS011;1321;48.690;9.022;2023-06-10T02:20:24;16.30;;;15.60;;
2622;SDS011;1321;48.690;9.022;2023-06-10T02:22:52;15.87;;;15.00;;
2622;SDS011;1321;48.690;9.022;2023-06-10T02:25:20;17.83;;;16.83;;
2622;SDS011;1321;48.690;9.022;2023-06-10T02:27:49;16.97;;;16.07;;
2622;SDS011;1321;48.690;9.022;2023-06-10T02:30:18;16.20;;;15.40;;
2622;SDS011;1321;48.690;9.022;2023-06-10T02:32:46;17.10;;;16.30;;
2622;SDS011;1321;48.690;9.022;2023-06-10T02:35:15;16.70;;;15.90;;
2622;SDS011;1321;48.690;9.022;2023-06-10T02:37:43;16.43;;;15.70;;
2622;SDS011;1321;48.690;9.022;2023-06-10T02:40:11;16.57;;;15.67;;
2622;SDS011;1321;48.690;9.022;2023-06-10T02:42:39;16.07;;;15.37;;
2622;SDS011;1321;48.690;9.022;2023-06-10T02:45:08;15.90;;;15.20;;
2622;SDS011;1321;48.690;9.022;2023-06-10T02:47:38;15.57;;;14.97;;
2622;SDS011;1321;48.690;9.022;2023-06-10T02:50:07;16.90;;;15.80;;
2622;SDS011;1321;48.690;9.022;2023-06-10T02:52:35;17.60;;;16.60;;
2622;SDS011;1321;48.690;9.022;2023-06-10T02:55:04;16.63;;;15.83;;
2622;SDS011;1321;48.690;9.022;2023-06-10T02:57:33;18.10;;;17.20;;
2622;SDS011;1321;48.690;9.022;2023-06-10T03:00:01;17.60;;;16.60;;
2622;SDS011;1321;48.690;9.022;2023-06-10T03:02:35;17.30;;;16.47;;
2622;SDS011;1321;48.690;9.022;2023-06-10T03:05:07;18.27;;;17.27;;
2622;SDS011;1321;48.690;9.022;2023-06-10T03:07:38;17.10;;;16.20;;
2622;SDS011;1321;48.690;9.022;2023-06-10T03:10:07;17.50;;;16.60;;
2622;SDS011;1321;48.690;9.022;2023-06-10T03:12:35;17.83;;;16.80;;
2622;SDS011;1321;48.690;9.022;2023-06-10T03:15:04;17.60;;;16.60;;
2622;SDS011;1321;48.690;9.022;2023-06-10T03:17:33;17.10;;;16.20;;
2622;SDS011;1321;48.690;9.022;2023-06-10T03:20:02;16.17;;;15.47;;
2622;SDS011;1321;48.690;9.022;2023-06-10T03:22:33;17.00;;;15.97;;
2622;SDS011;1321;48.690;9.022;2023-06-10T03:25:01;17.43;;;16.53;;
2622;SDS011;1321;48.690;9.022;2023-06-10T03:27:29;17.23;;;16.33;;
2622;SDS011;1321;48.690;9.022;2023-06-10T03:29:57;17.47;;;16.47;;
2622;SDS011;1321;48.690;9.022;2023-06-10T03:32:26;17.40;;;16.50;;
2622;SDS011;1321;48.690;9.022;2023-06-10T03:34:54;16.73;;;15.70;;
2622;SDS011;1321;48.690;9.022;2023-06-10T03:37:23;16.83;;;16.07;;
2622;SDS011;1321;48.690;9.022;2023-06-10T03:39:53;17.37;;;16.30;;
2622;SDS011;1321;48.690;9.022;2023-06-10T03:42:21;16.17;;;15.37;;
2622;SDS011;1321;48.690;9.022;2023-06-10T03:44:50;16.10;;;15.30;;
2622;SDS011;1321;48.690;9.022;2023-06-10T03:47:18;16.37;;;15.33;;
2622;SDS011;1321;48.690;9.022;2023-06-10T03:49:46;16.50;;;15.70;;
2622;SDS011;1321;48.690;9.022;2023-06-10T03:52:14;16.60;;;15.73;;
2622;SDS011;1321;48.690;9.022;2023-06-10T03:54:43;17.57;;;16.47;;
2622;SDS011;1321;48.690;9.022;2023-06-10T03:57:12;16.53;;;15.70;;
2622;SDS011;1321;48.690;9.022;2023-06-10T03:59:41;17.90;;;16.83;;
2622;SDS011;1321;48.690;9.022;2023-06-10T04:02:09;16.93;;;16.03;;
2622;SDS011;1321;48.690;9.022;2023-06-10T04:04:38;16.40;;;15.60;;
2622;SDS011;1321;48.690;9.022;2023-06-10T04:07:07;17.03;;;16.23;;
2622;SDS011;1321;48.690;9.022;2023-06-10T04:09:35;17.80;;;16.87;;
2622;SDS011;1321;48.690;9.022;2023-06-10T04:12:04;18.73;;;17.57;;
2622;SDS011;1321;48.690;9.022;2023-06-10T04:14:36;17.07;;;16.17;;
2622;SDS011;1321;48.690;9.022;2023-06-10T04:17:04;17.00;;;16.10;;
2622;SDS011;1321;48.690;9.022;2023-06-10T04:19:34;16.47;;;15.77;;
2622;SDS011;1321;48.690;9.022;2023-06-10T04:22:02;17.20;;;16.30;;
2622;SDS011;1321;48.690;9.022;2023-06-10T04:24:31;17.87;;;16.97;;
2622;SDS011;1321;48.690;9.022;2023-06-10T04:26:59;16.47;;;15.37;;
2622;SDS011;1321;48.690;9.022;2023-06-10T04:29:27;15.83;;;15.13;;
2622;SDS011;1321;48.690;9.022;2023-06-10T04:31:57;16.27;;;15.47;;
2622;SDS011;1321;48.690;9.022;2023-06-10T04:34:25;15.60;;;14.80;;
2622;SDS011;1321;48.690;9.022;2023-06-10T04:36:53;15.07;;;14.33;;
2622;SDS011;1321;48.690;9.022;2023-06-10T04:39:22;16.00;;;15.30;;
2622;SDS011;1321;48.690;9.022;2023-06-10T04:41:50;16.70;;;15.70;;
2622;SDS011;1321;48.690;9.022;2023-06-10T04:44:18;15.43;;;14.57;;
2622;SDS011;1321;48.690;9.022;2023-06-10T04:46:47;15.40;;;14.70;;
2622;SDS011;1321;48.690;9.022;2023-06-10T04:49:17;15.77;;;14.90;;
2622;SDS011;1321;48.690;9.022;2023-06-10T04:51:45;16.53;;;15.70;;
2622;SDS011;1321;48.690;9.022;2023-06-10T04:54:13;15.60;;;14.60;;
2622;SDS011;1321;48.690;9.022;2023-06-10T04:56:42;16.53;;;15.63;;
2622;SDS011;1321;48.690;9.022;2023-06-10T04:59:10;17.67;;;16.60;;
2622;SDS011;1321;48.690;9.022;2023-06-10T05:01:38;18.23;;;17.23;;
2622;SDS011;1321;48.690;9.022;2023-06-10T05:04:07;19.20;;;18.20;;
2622;SDS011;1321;48.690;9.022;2023-06-10T05:06:36;18.07;;;17.10;;
2622;SDS011;1321;48.690;9.022;2023-06-10T05:09:04;19.17;;;18.17;;
2622;SDS011;1321;48.690;9.022;2023-06-10T05:11:33;17.70;;;16.80;;
2622;SDS011;1321;48.690;9.022;2023-06-10T05:14:01;17.43;;;16.63;;
2622;SDS011;1321;48.690;9.022;2023-06-10T05:16:29;17.97;;;17.20;;
2622;SDS011;1321;48.690;9.022;2023-06-10T05:18:57;16.90;;;16.10;;
2622;SDS011;1321;48.690;9.022;2023-06-10T05:21:25;15.80;;;15.07;;
2622;SDS011;1321;48.690;9.022;2023-06-10T05:23:55;15.93;;;15.23;;
2622;SDS011;1321;48.690;9.022;2023-06-10T05:26:23;15.27;;;14.67;;
2622;SDS011;1321;48.690;9.022;2023-06-10T05:28:51;22.93;;;21.30;;
2622;SDS011;1321;48.690;9.022;2023-06-10T05:31:20;15.73;;;15.03;;
2622;SDS011;1321;48.690;9.022;2023-06-10T05:33:48;15.10;;;14.40;;
2622;SDS011;1321;48.690;9.022;2023-06-10T05:36:16;18.23;;;17.27;;
2622;SDS011;1321;48.690;9.022;2023-06-10T05:38:45;16.67;;;15.77;;
2622;SDS011;1321;48.690;9.022;2023-06-10T05:41:15;16.20;;;15.40;;
2622;SDS011;1321;48.690;9.022;2023-06-10T05:43:43;16.00;;;15.30;;
2622;SDS011;1321;48.690;9.022;2023-06-10T05:46:12;15.20;;;14.67;;
2622;SDS011;1321;48.690;9.022;2023-06-10T05:48:40;15.80;;;15.17;;
2622;SDS011;1321;48.690;9.022;2023-06-10T05:51:08;16.30;;;15.50;;
2622;SDS011;1321;48.690;9.022;2023-06-10T05:53:37;17.00;;;16.20;;
2622;SDS011;1321;48.690;9.022;2023-06-10T05:56:06;15.50;;;14.83;;
2622;SDS011;1321;48.690;9.022;2023-06-10T05:58:35;17.60;;;16.70;;
2622;SDS011;1321;48.690;9.022;2023-06-10T06:01:04;17.17;;;16.27;;
2622;SDS011;1321;48.690;9.022;2023-06-10T06:03:32;17.50;;;16.63;;
2622;SDS011;1321;48.690;9.022;2023-06-10T06:06:02;16.77;;;16.10;;
2622;SDS011;1321;48.690;9.022;2023-06-10T06:08:30;17.27;;;16.47;;
2622;SDS011;1321;48.690;9.022;2023-06-10T06:10:59;16.90;;;16.20;;
2622;SDS011;1321;48.690;9.022;2023-06-10T06:13:27;17.10;;;16.37;;
2622;SDS011;1321;48.690;9.022;2023-06-10T06:15:56;16.60;;;15.90;;
2622;SDS011;1321;48.690;9.022;2023-06-10T06:18:24;17.43;;;16.67;;
2622;SDS011;1321;48.690;9.022;2023-06-10T06:20:52;16.40;;;15.70;;
2622;SDS011;1321;48.690;9.022;2023-06-10T06:23:21;17.40;;;16.70;;
2622;SDS011;1321;48.690;9.022;2023-06-10T06:25:49;17.47;;;16.73;;
2622;SDS011;1321;48.690;9.022;2023-06-10T06:28:17;17.17;;;16.47;;
2622;SDS011;1321;48.690;9.022;2023-06-10T06:30:47;17.80;;;16.80;;
2622;SDS011;1321;48.690;9.022;2023-06-10T06:33:16;18.00;;;17.30;;
2622;SDS011;1321;48.690;9.022;2023-06-10T06:35:45;17.80;;;17.00;;
2622;SDS011;1321;48.690;9.022;2023-06-10T06:38:13;18.27;;;17.47;;
2622;SDS011;1321;48.690;9.022;2023-06-10T06:40:41;18.10;;;17.27;;
2622;SDS011;1321;48.690;9.022;2023-06-10T06:43:09;17.83;;;17.03;;
2622;SDS011;1321;48.690;9.022;2023-06-10T06:45:38;18.23;;;17.43;;
2622;SDS011;1321;48.690;9.022;2023-06-10T06:48:06;18.53;;;17.63;;
2622;SDS011;1321;48.690;9.022;2023-06-10T06:50:35;18.23;;;17.37;;
2622;SDS011;1321;48.690;9.022;2023-06-10T06:53:04;18.00;;;17.10;;
2622;SDS011;1321;48.690;9.022;2023-06-10T06:55:32;17.83;;;17.03;;
2622;SDS011;1321;48.690;9.022;2023-06-10T06:58:00;17.77;;;17.07;;
2622;SDS011;1321;48.690;9.022;2023-06-10T07:00:30;18.60;;;17.80;;
2622;SDS011;1321;48.690;9.022;2023-06-10T07:02:59;19.03;;;18.10;;
2622;SDS011;1321;48.690;9.022;2023-06-10T07:05:27;19.90;;;19.10;;
2622;SDS011;1321;48.690;9.022;2023-06-10T07:07:57;18.60;;;17.90;;
2622;SDS011;1321;48.690;9.022;2023-06-10T07:10:26;19.73;;;18.83;;
2622;SDS011;1321;48.690;9.022;2023-06-10T07:12:54;19.83;;;18.83;;
2622;SDS011;1321;48.690;9.022;2023-06-10T07:15:22;18.17;;;17.47;;
2622;SDS011;1321;48.690;9.022;2023-06-10T07:17:50;18.90;;;17.90;;
2622;SDS011;1321;48.690;9.022;2023-06-10T07:20:19;17.87;;;17.17;;
2622;SDS011;1321;48.690;9.022;2023-06-10T07:22:47;19.00;;;18.17;;
2622;SDS011;1321;48.690;9.022;2023-06-10T07:25:16;19.63;;;18.83;;
2622;SDS011;1321;48.690;9.022;2023-06-10T07:27:45;18.50;;;17.80;;
2622;SDS011;1321;48.690;9.022;2023-06-10T07:30:13;19.07;;;18.37;;
2622;SDS011;1321;48.690;9.022;2023-06-10T07:32:41;19.23;;;18.23;;
2622;SDS011;1321;48.690;9.022;2023-06-10T07:35:10;18.73;;;17.93;;
2622;SDS011;1321;48.690;9.022;2023-06-10T07:37:38;19.30;;;18.40;;
2622;SDS011;1321;48.690;9.022;2023-06-10T07:40:07;19.33;;;18.33;;
2622;SDS011;1321;48.690;9.022;2023-06-10T07:42:37;20.07;;;18.93;;
2622;SDS011;1321;48.690;9.022;2023-06-10T07:45:06;19.20;;;18.40;;
2622;SDS011;1321;48.690;9.022;2023-06-10T07:47:35;18.80;;;18.00;;
2622;SDS011;1321;48.690;9.022;2023-06-10T07:50:03;19.57;;;18.37;;
2622;SDS011;1321;48.690;9.022;2023-06-10T07:52:32;19.23;;;18.43;;
2622;SDS011;1321;48.690;9.022;2023-06-10T07:55:00;18.80;;;18.07;;
2622;SDS011;1321;48.690;9.022;2023-06-10T07:57:28;19.37;;;18.50;;
2622;SDS011;1321;48.690;9.022;2023-06-10T08:03:35;18.47;;;17.77;;
2622;SDS011;1321;48.690;9.022;2023-06-10T08:06:03;18.57;;;17.77;;
2622;SDS011;1321;48.690;9.022;2023-06-10T08:08:50;19.00;;;18.20;;
2622;SDS011;1321;48.690;9.022;2023-06-10T08:12:00;19.27;;;17.97;;
2622;SDS011;1321;48.690;9.022;2023-06-10T08:14:31;18.53;;;17.73;;
2622;SDS011;1321;48.690;9.022;2023-06-10T08:17:08;18.53;;;17.83;;
2622;SDS011;1321;48.690;9.022;2023-06-10T08:19:39;18.30;;;17.40;;
2622;SDS011;1321;48.690;9.022;2023-06-10T08:22:07;18.73;;;17.83;;
2622;SDS011;1321;48.690;9.022;2023-06-10T08:24:37;17.60;;;16.90;;
2622;SDS011;1321;48.690;9.022;2023-06-10T08:27:05;18.83;;;18.10;;
2622;SDS011;1321;48.690;9.022;2023-06-10T08:29:33;18.90;;;18.03;;
2622;SDS011;1321;48.690;9.022;2023-06-10T08:32:01;18.43;;;17.63;;
2622;SDS011;1321;48.690;9.022;2023-06-10T08:34:32;18.93;;;18.23;;
2622;SDS011;1321;48.690;9.022;2023-06-10T08:37:03;19.17;;;18.37;;
2622;SDS011;1321;48.690;9.022;2023-06-10T08:39:31;19.53;;;18.60;;
2622;SDS011;1321;48.690;9.022;2023-06-10T08:42:00;19.93;;;19.13;;
2622;SDS011;1321;48.690;9.022;2023-06-10T08:44:36;19.47;;;18.77;;
2622;SDS011;1321;48.690;9.022;2023-06-10T08:47:08;18.80;;;17.90;;
2622;SDS011;1321;48.690;9.022;2023-06-10T08:49:41;19.37;;;18.57;;
2622;SDS011;1321;48.690;9.022;2023-06-10T08:52:14;19.00;;;18.20;;
2622;SDS011;1321;48.690;9.022;2023-06-10T08:54:46;19.63;;;18.73;;
2622;SDS011;1321;48.690;9.022;2023-06-10T08:57:19;19.10;;;18.30;;
2622;SDS011;1321;48.690;9.022;2023-06-10T08:59:48;18.40;;;17.80;;
2622;SDS011;1321;48.690;9.022;2023-06-10T09:02:17;19.10;;;18.30;;
2622;SDS011;1321;48.690;9.022;2023-06-10T09:04:49;18.10;;;17.40;;
2622;SDS011;1321;48.690;9.022;2023-06-10T09:10:07;18.50;;;17.80;;
2622;SDS011;1321;48.690;9.022;2023-06-10T09:12:37;17.87;;;17.17;;
2622;SDS011;1321;48.690;9.022;2023-06-10T09:15:05;18.40;;;17.70;;
2622;SDS011;1321;48.690;9.022;2023-06-10T09:17:35;17.90;;;17.23;;
2622;SDS011;1321;48.690;9.022;2023-06-10T09:20:05;17.93;;;17.33;;
2622;SDS011;1321;48.690;9.022;2023-06-10T09:22:36;17.57;;;16.93;;
2622;SDS011;1321;48.690;9.022;2023-06-10T09:25:06;18.83;;;18.13;;
2622;SDS011;1321;48.690;9.022;2023-06-10T09:27:43;17.40;;;16.80;;
2622;SDS011;1321;48.690;9.022;2023-06-10T09:30:23;20.23;;;18.87;;
2622;SDS011;1321;48.690;9.022;2023-06-10T09:32:53;18.52;;;17.75;;
2622;SDS011;1321;48.690;9.022;2023-06-10T09:35:25;17.83;;;17.13;;
2622;SDS011;1321;48.690;9.022;2023-06-10T09:38:04;19.40;;;18.60;;
2622;SDS011;1321;48.690;9.022;2023-06-10T09:40:39;18.87;;;18.00;;
2622;SDS011;1321;48.690;9.022;2023-06-10T09:43:16;17.93;;;17.30;;
2622;SDS011;1321;48.690;9.022;2023-06-10T09:45:47;18.43;;;17.73;;
2622;SDS011;1321;48.690;9.022;2023-06-10T09:48:31;18.97;;;18.23;;
2622;SDS011;1321;48.690;9.022;2023-06-10T09:51:05;18.03;;;17.40;;
2622;SDS011;1321;48.690;9.022;2023-06-10T09:53:38;18.60;;;17.90;;
2622;SDS011;1321;48.690;9.022;2023-06-10T09:56:06;19.00;;;18.30;;
2622;SDS011;1321;48.690;9.022;2023-06-10T09:58:39;18.60;;;17.90;;
2622;SDS011;1321;48.690;9.022;2023-06-10T10:01:13;18.80;;;18.00;;
2622;SDS011;1321;48.690;9.022;2023-06-10T10:06:58;19.00;;;18.20;;
2622;SDS011;1321;48.690;9.022;2023-06-10T10:09:28;19.77;;;18.93;;
2622;SDS011;1321;48.690;9.022;2023-06-10T10:11:56;18.10;;;17.33;;
2622;SDS011;1321;48.690;9.022;2023-06-10T10:14:27;18.70;;;17.98;;
2622;SDS011;1321;48.690;9.022;2023-06-10T10:17:11;17.90;;;17.10;;
2622;SDS011;1321;48.690;9.022;2023-06-10T10:19:43;17.60;;;16.90;;
2622;SDS011;1321;48.690;9.022;2023-06-10T10:22:33;17.50;;;16.70;;
2622;SDS011;1321;48.690;9.022;2023-06-10T10:25:10;17.93;;;17.13;;
2622;SDS011;1321;48.690;9.022;2023-06-10T10:27:41;18.10;;;17.30;;
2622;SDS011;1321;48.690;9.022;2023-06-10T10:30:16;18.30;;;17.33;;
2622;SDS011;1321;48.690;9.022;2023-06-10T10:32:46;17.67;;;16.97;;
2622;SDS011;1321;48.690;9.022;2023-06-10T10:35:24;17.30;;;16.43;;
2622;SDS011;1321;48.690;9.022;2023-06-10T10:37:54;17.17;;;16.47;;
2622;SDS011;1321;48.690;9.022;2023-06-10T10:40:24;16.90;;;16.30;;
2622;SDS011;1321;48.690;9.022;2023-06-10T10:42:59;17.03;;;16.23;;
2622;SDS011;1321;48.690;9.022;2023-06-10T10:45:28;15.73;;;15.13;;
2622;SDS011;1321;48.690;9.022;2023-06-10T10:47:57;16.27;;;15.67;;
2622;SDS011;1321;48.690;9.022;2023-06-10T10:50:25;17.20;;;16.20;;
2622;SDS011;1321;48.690;9.022;2023-06-10T10:52:58;18.00;;;17.30;;
2622;SDS011;1321;48.690;9.022;2023-06-10T10:55:33;18.13;;;17.33;;
2622;SDS011;1321;48.690;9.022;2023-06-10T10:58:05;17.33;;;16.70;;
2622;SDS011;1321;48.690;9.022;2023-06-10T11:00:52;16.50;;;15.90;;
2622;SDS011;1321;48.690;9.022;2023-06-10T11:03:21;15.97;;;15.47;;
2622;SDS011;1321;48.690;9.022;2023-06-10T11:05:49;16.40;;;15.80;;
2622;SDS011;1321;48.690;9.022;2023-06-10T11:11:19;16.40;;;15.80;;
2622;SDS011;1321;48.690;9.022;2023-06-10T11:13:58;16.70;;;16.00;;
2622;SDS011;1321;48.690;9.022;2023-06-10T11:16:37;16.23;;;15.50;;
2622;SDS011;1321;48.690;9.022;2023-06-10T11:19:14;15.60;;;15.10;;
2622;SDS011;1321;48.690;9.022;2023-06-10T11:22:00;15.97;;;15.30;;
2622;SDS011;1321;48.690;9.022;2023-06-10T11:24:29;16.80;;;16.10;;
2622;SDS011;1321;48.690;9.022;2023-06-10T11:29:55;18.27;;;17.33;;
2622;SDS011;1321;48.690;9.022;2023-06-10T11:32:25;16.30;;;15.70;;
2622;SDS011;1321;48.690;9.022;2023-06-10T11:34:58;16.50;;;15.83;;
2622;SDS011;1321;48.690;9.022;2023-06-10T11:37:27;16.97;;;16.17;;
2622;SDS011;1321;48.690;9.022;2023-06-10T11:39:55;17.03;;;16.27;;
2622;SDS011;1321;48.690;9.022;2023-06-10T11:42:25;17.87;;;16.70;;
2622;SDS011;1321;48.690;9.022;2023-06-10T11:44:54;17.03;;;16.40;;
2622;SDS011;1321;48.690;9.022;2023-06-10T11:47:22;16.77;;;16.03;;
2622;SDS011;1321;48.690;9.022;2023-06-10T11:49:55;17.17;;;16.40;;
2622;SDS011;1321;48.690;9.022;2023-06-10T11:52:26;17.63;;;16.77;;
2622;SDS011;1321;48.690;9.022;2023-06-10T11:54:55;17.30;;;16.60;;
2622;SDS011;1321;48.690;9.022;2023-06-10T11:57:23;17.20;;;16.60;;
2622;SDS011;1321;48.690;9.022;2023-06-10T11:59:52;16.70;;;16.00;;
2622;SDS011;1321;48.690;9.022;2023-06-10T12:02:20;17.37;;;16.63;;
2622;SDS011;1321;48.690;9.022;2023-06-10T12:04:49;17.07;;;16.33;;
2622;SDS011;1321;48.690;9.022;2023-06-10T12:07:17;17.63;;;16.43;;
2622;SDS011;1321;48.690;9.022;2023-06-10T12:09:57;16.97;;;16.17;;
2622;SDS011;1321;48.690;9.022;2023-06-10T12:12:44;17.73;;;16.83;;
2622;SDS011;1321;48.690;9.022;2023-06-10T12:15:19;18.90;;;17.70;;
2622;SDS011;1321;48.690;9.022;2023-06-10T12:17:51;18.03;;;17.00;;
2622;SDS011;1321;48.690;9.022;2023-06-10T12:20:25;18.63;;;17.67;;
2622;SDS011;1321;48.690;9.022;2023-06-10T12:22:54;21.33;;;19.93;;
2622;SDS011;1321;48.690;9.022;2023-06-10T12:25:26;17.30;;;16.50;;
2622;SDS011;1321;48.690;9.022;2023-06-10T12:27:56;16.67;;;16.07;;
2622;SDS011;1321;48.690;9.022;2023-06-10T12:30:26;16.90;;;16.20;;
2622;SDS011;1321;48.690;9.022;2023-06-10T12:32:55;18.63;;;17.73;;
2622;SDS011;1321;48.690;9.022;2023-06-10T12:35:24;18.17;;;17.40;;
2622;SDS011;1321;48.690;9.022;2023-06-10T12:37:54;16.00;;;15.40;;
2622;SDS011;1321;48.690;9.022;2023-06-10T12:40:27;15.90;;;15.20;;
2622;SDS011;1321;48.690;9.022;2023-06-10T12:42:58;17.40;;;16.70;;
2622;SDS011;1321;48.690;9.022;2023-06-10T12:45:28;17.07;;;16.27;;
2622;SDS011;1321;48.690;9.022;2023-06-10T12:48:04;16.60;;;16.00;;
2622;SDS011;1321;48.690;9.022;2023-06-10T12:50:35;17.03;;;16.43;;
2622;SDS011;1321;48.690;9.022;2023-06-10T12:53:05;15.67;;;15.17;;
2622;SDS011;1321;48.690;9.022;2023-06-10T12:55:34;16.10;;;15.50;;
2622;SDS011;1321;48.690;9.022;2023-06-10T12:58:02;17.40;;;16.70;;
2622;SDS011;1321;48.690;9.022;2023-06-10T13:00:32;17.13;;;16.53;;
2622;SDS011;1321;48.690;9.022;2023-06-10T13:03:01;15.73;;;15.20;;
2622;SDS011;1321;48.690;9.022;2023-06-10T13:05:32;15.57;;;15.07;;
2622;SDS011;1321;48.690;9.022;2023-06-10T13:08:01;16.00;;;15.50;;
2622;SDS011;1321;48.690;9.022;2023-06-10T13:10:30;16.63;;;16.00;;
2622;SDS011;1321;48.690;9.022;2023-06-10T13:12:58;16.13;;;15.43;;
2622;SDS011;1321;48.690;9.022;2023-06-10T13:15:27;16.50;;;15.90;;
2622;SDS011;1321;48.690;9.022;2023-06-10T13:17:56;17.40;;;16.80;;
2622;SDS011;1321;48.690;9.022;2023-06-10T13:20:25;16.70;;;15.80;;
2622;SDS011;1321;48.690;9.022;2023-06-10T13:22:53;16.40;;;15.90;;
2622;SDS011;1321;48.690;9.022;2023-06-10T13:25:21;16.50;;;15.90;;
2622;SDS011;1321;48.690;9.022;2023-06-10T13:27:49;17.07;;;16.37;;
2622;SDS011;1321;48.690;9.022;2023-06-10T13:30:17;17.13;;;16.27;;
2622;SDS011;1321;48.690;9.022;2023-06-10T13:32:45;17.60;;;16.90;;
2622;SDS011;1321;48.690;9.022;2023-06-10T13:35:15;16.23;;;15.63;;
2622;SDS011;1321;48.690;9.022;2023-06-10T13:37:43;16.60;;;15.87;;
2622;SDS011;1321;48.690;9.022;2023-06-10T13:40:12;16.43;;;15.83;;
2622;SDS011;1321;48.690;9.022;2023-06-10T13:42:40;16.43;;;15.73;;
2622;SDS011;1321;48.690;9.022;2023-06-10T13:45:08;16.67;;;15.30;;
2622;SDS011;1321;48.690;9.022;2023-06-10T13:47:37;16.90;;;16.10;;
2622;SDS011;1321;48.690;9.022;2023-06-10T13:50:06;15.63;;;15.07;;
2622;SDS011;1321;48.690;9.022;2023-06-10T13:52:36;16.73;;;16.03;;
2622;SDS011;1321;48.690;9.022;2023-06-10T13:55:05;17.00;;;16.17;;
2622;SDS011;1321;48.690;9.022;2023-06-10T13:57:34;17.67;;;16.70;;
2622;SDS011;1321;48.690;9.022;2023-06-10T14:00:02;16.40;;;15.80;;
2622;SDS011;1321;48.690;9.022;2023-06-10T14:02:32;16.63;;;15.93;;
2622;SDS011;1321;48.690;9.022;2023-06-10T14:05:00;16.80;;;16.10;;
2622;SDS011;1321;48.690;9.022;2023-06-10T14:07:29;16.70;;;16.10;;
2622;SDS011;1321;48.690;9.022;2023-06-10T14:09:58;16.10;;;15.40;;
2622;SDS011;1321;48.690;9.022;2023-06-10T14:12:27;17.17;;;16.50;;
2622;SDS011;1321;48.690;9.022;2023-06-10T14:14:55;17.17;;;16.37;;
2622;SDS011;1321;48.690;9.022;2023-06-10T14:17:23;17.70;;;17.00;;
2622;SDS011;1321;48.690;9.022;2023-06-10T14:19:51;17.30;;;16.63;;
2622;SDS011;1321;48.690;9.022;2023-06-10T14:22:19;16.47;;;15.87;;
2622;SDS011;1321;48.690;9.022;2023-06-10T14:24:47;16.30;;;15.70;;
2622;SDS011;1321;48.690;9.022;2023-06-10T14:27:17;17.87;;;16.80;;
2622;SDS011;1321;48.690;9.022;2023-06-10T14:29:46;17.27;;;16.57;;
2622;SDS011;1321;48.690;9.022;2023-06-10T14:32:14;16.97;;;16.00;;
2622;SDS011;1321;48.690;9.022;2023-06-10T14:34:45;16.60;;;15.90;;
2622;SDS011;1321;48.690;9.022;2023-06-10T14:37:14;16.10;;;15.40;;
2622;SDS011;1321;48.690;9.022;2023-06-10T14:39:42;16.63;;;15.80;;
2622;SDS011;1321;48.690;9.022;2023-06-10T14:42:10;16.43;;;15.83;;
2622;SDS011;1321;48.690;9.022;2023-06-10T14:44:39;15.90;;;15.30;;
2622;SDS011;1321;48.690;9.022;2023-06-10T14:47:07;15.73;;;15.13;;
2622;SDS011;1321;48.690;9.022;2023-06-10T14:49:35;15.43;;;14.90;;
2622;SDS011;1321;48.690;9.022;2023-06-10T14:52:04;16.27;;;15.67;;
2622;SDS011;1321;48.690;9.022;2023-06-10T14:54:32;15.40;;;14.83;;
2622;SDS011;1321;48.690;9.022;2023-06-10T14:57:00;15.90;;;15.40;;
2622;SDS011;1321;48.690;9.022;2023-06-10T14:59:28;16.00;;;15.50;;
2622;SDS011;1321;48.690;9.022;2023-06-10T15:01:58;15.90;;;15.20;;
2622;SDS011;1321;48.690;9.022;2023-06-10T15:04:27;16.70;;;16.00;;
2622;SDS011;1321;48.690;9.022;2023-06-10T15:06:55;16.33;;;15.73;;
2622;SDS011;1321;48.690;9.022;2023-06-10T15:09:24;16.93;;;16.13;;
2622;SDS011;1321;48.690;9.022;2023-06-10T15:11:52;15.43;;;14.83;;
2622;SDS011;1321;48.690;9.022;2023-06-10T15:14:20;15.70;;;14.80;;
2622;SDS011;1321;48.690;9.022;2023-06-10T15:16:48;16.30;;;15.67;;
2622;SDS011;1321;48.690;9.022;2023-06-10T15:19:17;16.13;;;15.53;;